createdAt,value
2023-05-14T00:02:13.408Z,14.90
2023-05-14T00:04:41.604Z,14.90
2023-05-14T00:07:11.689Z,14.80
2023-05-14T00:09:39.647Z,14.80
2023-05-14T00:12:07.747Z,14.70
2023-05-14T00:14:35.714Z,14.60
2023-05-14T00:17:03.686Z,14.50
2023-05-14T00:19:31.633Z,14.50
2023-05-14T00:21:59.629Z,14.50
2023-05-14T00:24:28.988Z,14.40
2023-05-14T00:26:57.203Z,14.30
2023-05-14T00:29:25.159Z,14.20
2023-05-14T00:31:53.265Z,14.20
2023-05-14T00:34:21.271Z,14.20
2023-05-14T00:36:49.279Z,14.20
2023-05-14T00:39:17.247Z,14.20
2023-05-14T00:41:46.567Z,14.10
2023-05-14T00:44:14.523Z,14.10
2023-05-14T00:46:43.765Z,14.10
2023-05-14T00:49:11.839Z,14.10
2023-05-14T00:51:41.466Z,14.00
2023-05-14T00:54:09.480Z,14.00
2023-05-14T00:56:37.433Z,14.00
2023-05-14T00:59:06.911Z,13.90
2023-05-14T01:01:34.957Z,13.90
2023-05-14T01:04:03.076Z,13.80
2023-05-14T01:06:36.983Z,13.80
2023-05-14T01:09:09.617Z,13.80
2023-05-14T01:11:41.260Z,13.80
2023-05-14T01:14:15.561Z,13.70
2023-05-14T01:16:43.924Z,13.60
2023-05-14T01:19:26.916Z,13.50
2023-05-14T01:21:56.391Z,13.50
2023-05-14T01:24:24.381Z,13.40
2023-05-14T01:26:52.444Z,13.40
2023-05-14T01:29:22.461Z,13.40
2023-05-14T01:31:52.052Z,13.30
2023-05-14T01:34:22.205Z,13.30
2023-05-14T01:36:50.900Z,13.30
2023-05-14T01:39:20.592Z,13.30
2023-05-14T01:41:49.301Z,13.30
2023-05-14T01:44:17.409Z,13.30
2023-05-14T01:46:45.368Z,13.30
2023-05-14T01:49:13.511Z,13.30
2023-05-14T01:51:41.466Z,13.20
2023-05-14T01:54:09.439Z,13.20
2023-05-14T01:56:38.811Z,13.20
2023-05-14T01:59:06.994Z,13.10
2023-05-14T02:01:35.055Z,13.10
2023-05-14T02:04:03.078Z,13.10
2023-05-14T02:06:31.633Z,13.00
2023-05-14T02:08:59.570Z,13.00
2023-05-14T02:11:27.546Z,13.00
2023-05-14T02:13:56.982Z,13.00
2023-05-14T02:16:24.964Z,13.00
2023-05-14T02:18:52.970Z,12.90
2023-05-14T02:21:21.019Z,12.90
2023-05-14T02:23:49.539Z,12.90
2023-05-14T02:26:17.648Z,12.80
2023-05-14T02:28:45.935Z,12.80
2023-05-14T02:31:15.534Z,12.70
2023-05-14T02:33:43.601Z,12.70
2023-05-14T02:36:11.633Z,12.70
2023-05-14T02:38:39.729Z,12.70
2023-05-14T02:41:07.661Z,12.60
2023-05-14T02:43:35.633Z,12.60
2023-05-14T02:46:03.739Z,12.60
2023-05-14T02:48:33.114Z,12.60
2023-05-14T02:51:01.323Z,12.60
2023-05-14T02:53:29.284Z,12.60
2023-05-14T02:55:57.269Z,12.50
2023-05-14T02:58:28.321Z,12.50
2023-05-14T03:00:56.673Z,12.50
2023-05-14T03:03:25.408Z,12.50
2023-05-14T03:05:55.171Z,12.50
2023-05-14T03:08:23.234Z,12.50
2023-05-14T03:10:51.195Z,12.40
2023-05-14T03:13:20.665Z,12.40
2023-05-14T03:15:48.760Z,12.40
2023-05-14T03:18:16.760Z,12.40
2023-05-14T03:20:44.730Z,12.30
2023-05-14T03:23:14.864Z,12.40
2023-05-14T03:25:42.853Z,12.30
2023-05-14T03:28:10.896Z,12.70
2023-05-14T03:30:38.869Z,12.30
2023-05-14T03:33:07.061Z,12.30
2023-05-14T03:35:35.178Z,12.30
2023-05-14T03:38:03.145Z,12.30
2023-05-14T03:40:32.524Z,12.30
2023-05-14T03:43:00.752Z,12.30
2023-05-14T03:45:30.412Z,12.20
2023-05-14T03:47:58.520Z,12.20
2023-05-14T03:50:26.674Z,12.20
2023-05-14T03:52:55.038Z,12.20
2023-05-14T03:55:23.040Z,12.20
2023-05-14T03:57:52.388Z,12.20
2023-05-14T04:00:21.324Z,12.20
2023-05-14T04:02:49.629Z,12.20
2023-05-14T04:05:17.792Z,12.20
2023-05-14T04:07:46.272Z,12.20
2023-05-14T04:10:14.503Z,12.20
2023-05-14T04:12:42.907Z,12.20
2023-05-14T04:15:12.613Z,12.30
2023-05-14T04:17:40.662Z,12.20
2023-05-14T04:20:09.113Z,12.20
2023-05-14T04:22:37.159Z,12.20
2023-05-14T04:25:05.634Z,12.30
2023-05-14T04:27:34.162Z,12.30
2023-05-14T04:30:02.276Z,12.30
2023-05-14T04:32:31.668Z,12.30
2023-05-14T04:34:59.735Z,12.30
2023-05-14T04:37:27.769Z,12.40
2023-05-14T04:39:57.558Z,12.40
2023-05-14T04:42:25.549Z,12.40
2023-05-14T04:44:53.526Z,12.40
2023-05-14T04:47:22.237Z,12.40
2023-05-14T04:49:51.739Z,12.50
2023-05-14T04:52:19.766Z,12.50
2023-05-14T04:54:47.866Z,12.50
2023-05-14T04:57:15.854Z,12.60
2023-05-14T04:59:43.818Z,12.60
2023-05-14T05:02:11.845Z,12.60
2023-05-14T05:04:39.901Z,12.70
2023-05-14T05:07:09.244Z,12.70
2023-05-14T05:09:37.218Z,12.70
2023-05-14T05:12:05.455Z,12.80
2023-05-14T05:14:33.498Z,12.80
2023-05-14T05:17:01.452Z,12.80
2023-05-14T05:19:42.504Z,12.90
2023-05-14T05:22:12.905Z,12.90
2023-05-14T05:24:40.913Z,12.90
2023-05-14T05:27:08.877Z,12.90
2023-05-14T05:29:36.887Z,12.90
2023-05-14T05:32:05.059Z,13.00
2023-05-14T05:34:33.160Z,13.00
2023-05-14T05:37:01.177Z,13.10
2023-05-14T05:39:34.646Z,13.10
2023-05-14T05:42:03.038Z,13.20
2023-05-14T05:44:31.052Z,13.20
2023-05-14T05:46:59.078Z,13.20
2023-05-14T05:49:27.127Z,13.30
2023-05-14T05:51:55.220Z,13.30
2023-05-14T05:54:23.976Z,13.40
2023-05-14T05:56:53.280Z,13.40
2023-05-14T05:59:21.644Z,13.40
2023-05-14T06:01:49.653Z,13.50
2023-05-14T06:04:17.726Z,13.50
2023-05-14T06:06:45.699Z,13.50
2023-05-14T06:09:13.673Z,13.60
2023-05-14T06:11:41.627Z,13.60
2023-05-14T06:14:11.049Z,13.70
2023-05-14T06:16:39.010Z,13.70
2023-05-14T06:19:08.397Z,13.60
2023-05-14T06:21:36.410Z,13.60
2023-05-14T06:24:04.451Z,13.70
2023-05-14T06:26:32.450Z,13.80
2023-05-14T06:29:00.411Z,13.90
2023-05-14T06:31:29.785Z,13.90
2023-05-14T06:33:57.774Z,13.90
2023-05-14T06:36:25.734Z,13.90
2023-05-14T06:38:53.774Z,14.00
2023-05-14T06:41:22.677Z,14.10
2023-05-14T06:43:50.617Z,14.20
2023-05-14T06:46:18.600Z,14.20
2023-05-14T06:48:47.990Z,14.30
2023-05-14T06:51:16.009Z,14.30
2023-05-14T06:53:43.972Z,14.30
2023-05-14T06:56:12.928Z,14.20
2023-05-14T06:58:40.980Z,14.40
2023-05-14T07:01:09.154Z,14.50
2023-05-14T07:03:37.149Z,14.60
2023-05-14T07:06:07.213Z,14.70
2023-05-14T07:08:35.192Z,14.70
2023-05-14T07:11:03.156Z,14.80
2023-05-14T07:13:31.163Z,14.90
2023-05-14T07:15:59.132Z,15.00
2023-05-14T07:18:27.127Z,15.10
2023-05-14T07:20:55.143Z,15.10
2023-05-14T07:23:24.482Z,15.10
2023-05-14T07:25:52.458Z,15.10
2023-05-14T07:28:20.446Z,15.20
2023-05-14T07:30:48.385Z,15.30
2023-05-14T07:33:16.353Z,15.30
2023-05-14T07:35:44.385Z,15.40
2023-05-14T07:38:12.377Z,15.40
2023-05-14T07:40:41.795Z,15.50
2023-05-14T07:43:09.793Z,15.60
2023-05-14T07:45:37.903Z,15.70
2023-05-14T07:48:06.110Z,15.80
2023-05-14T07:50:34.272Z,17.20
2023-05-14T07:53:02.219Z,15.90
2023-05-14T07:55:30.256Z,16.00
2023-05-14T07:57:59.581Z,16.10
2023-05-14T08:00:27.627Z,16.20
2023-05-14T08:02:56.165Z,16.30
2023-05-14T08:05:24.397Z,16.30
2023-05-14T08:07:52.394Z,16.30
2023-05-14T08:10:20.488Z,16.40
2023-05-14T08:12:48.455Z,16.50
2023-05-14T08:15:17.861Z,16.60
2023-05-14T08:17:48.922Z,16.60
2023-05-14T08:20:16.898Z,16.70
2023-05-14T08:22:44.973Z,16.70
2023-05-14T08:25:13.093Z,16.80
2023-05-14T08:27:41.143Z,16.80
2023-05-14T08:30:09.453Z,17.00
2023-05-14T08:32:39.424Z,17.10
2023-05-14T08:35:08.279Z,17.10
2023-05-14T08:37:36.261Z,17.20
2023-05-14T08:40:04.560Z,17.20
2023-05-14T08:42:32.717Z,17.30
2023-05-14T08:45:01.899Z,17.50
2023-05-14T08:47:30.314Z,17.60
2023-05-14T08:50:04.195Z,17.70
2023-05-14T08:52:32.233Z,17.80
2023-05-14T08:55:00.365Z,17.90
2023-05-14T08:57:29.036Z,18.00
2023-05-14T08:59:57.176Z,18.10
2023-05-14T09:02:28.635Z,18.20
2023-05-14T09:04:57.327Z,18.20
2023-05-14T09:07:26.995Z,18.40
2023-05-14T09:09:55.221Z,18.50
2023-05-14T09:12:23.524Z,18.60
2023-05-14T09:14:51.998Z,18.70
2023-05-14T09:17:20.625Z,18.70
2023-05-14T09:19:49.222Z,18.80
2023-05-14T09:22:18.255Z,18.90
2023-05-14T09:24:47.908Z,18.90
2023-05-14T09:27:20.082Z,19.00
2023-05-14T09:29:48.711Z,19.10
2023-05-14T09:32:16.647Z,19.20
2023-05-14T09:34:44.659Z,19.20
2023-05-14T09:37:12.642Z,19.30
2023-05-14T09:39:40.616Z,19.40
2023-05-14T09:42:09.986Z,19.40
2023-05-14T09:44:40.813Z,19.50
2023-05-14T09:47:08.977Z,19.50
2023-05-14T09:49:37.065Z,19.70
2023-05-14T09:52:07.403Z,19.80
2023-05-14T09:54:35.895Z,19.90
2023-05-14T09:57:03.877Z,20.00
2023-05-14T09:59:33.343Z,20.10
2023-05-14T10:02:01.660Z,20.20
2023-05-14T10:04:29.815Z,20.20
2023-05-14T10:06:57.907Z,20.20
2023-05-14T10:09:28.363Z,20.40
2023-05-14T10:12:00.126Z,20.40
2023-05-14T10:14:30.415Z,20.60
2023-05-14T10:17:00.478Z,20.60
2023-05-14T10:19:29.006Z,20.50
2023-05-14T10:21:57.672Z,20.70
2023-05-14T10:24:25.883Z,20.70
2023-05-14T10:26:54.574Z,20.60
2023-05-14T10:29:32.373Z,20.80
2023-05-14T10:32:04.652Z,21.10
2023-05-14T10:34:33.420Z,21.20
2023-05-14T10:37:02.215Z,21.30
2023-05-14T10:39:43.339Z,21.40
2023-05-14T10:42:12.339Z,21.50
2023-05-14T10:44:43.870Z,21.30
2023-05-14T10:47:13.313Z,21.30
2023-05-14T10:49:44.034Z,21.40
2023-05-14T10:52:12.925Z,21.60
2023-05-14T10:54:40.975Z,21.70
2023-05-14T10:57:12.078Z,21.70
2023-05-14T10:59:42.818Z,21.70
2023-05-14T11:02:21.552Z,21.80
2023-05-14T11:05:00.841Z,21.70
2023-05-14T11:07:29.536Z,21.70
2023-05-14T11:10:01.586Z,21.70
2023-05-14T11:12:30.034Z,21.80
2023-05-14T11:14:58.435Z,21.90
2023-05-14T11:17:28.487Z,22.10
2023-05-14T11:19:56.921Z,22.20
2023-05-14T11:22:25.462Z,22.10
2023-05-14T11:24:53.587Z,22.20
2023-05-14T11:27:22.658Z,22.30
2023-05-14T11:29:50.955Z,22.30
2023-05-14T11:32:19.380Z,22.30
2023-05-14T11:34:48.861Z,22.20
2023-05-14T11:37:17.373Z,22.20
2023-05-14T11:39:48.764Z,22.30
2023-05-14T11:42:18.643Z,22.50
2023-05-14T11:44:49.917Z,22.70
2023-05-14T11:47:18.505Z,22.80
2023-05-14T11:49:48.527Z,22.90
2023-05-14T11:52:19.402Z,23.10
2023-05-14T11:54:47.667Z,23.30
2023-05-14T11:57:16.920Z,23.40
2023-05-14T11:59:45.055Z,23.50
2023-05-14T12:02:13.691Z,23.40
2023-05-14T12:04:42.297Z,23.30
2023-05-14T12:07:12.295Z,23.00
2023-05-14T12:09:43.562Z,22.80
2023-05-14T12:12:13.368Z,23.20
2023-05-14T12:14:43.327Z,23.20
2023-05-14T12:17:12.889Z,23.40
2023-05-14T12:19:41.882Z,23.40
2023-05-14T12:22:11.507Z,23.30
2023-05-14T12:24:40.244Z,23.50
2023-05-14T12:27:09.085Z,23.60
2023-05-14T12:29:38.546Z,23.90
2023-05-14T12:32:09.280Z,24.20
2023-05-14T12:34:37.901Z,24.50
2023-05-14T12:37:06.431Z,24.40
2023-05-14T12:39:35.818Z,24.60
2023-05-14T12:42:03.817Z,24.80
2023-05-14T12:44:31.788Z,24.90
2023-05-14T12:46:59.954Z,24.80
2023-05-14T12:49:28.324Z,24.90
2023-05-14T12:52:07.659Z,25.00
2023-05-14T12:54:45.621Z,25.00
2023-05-14T12:57:13.805Z,25.20
2023-05-14T12:59:41.792Z,25.10
2023-05-14T13:02:09.820Z,25.10
2023-05-14T13:04:38.578Z,25.00
2023-05-14T13:07:08.855Z,24.90
2023-05-14T13:09:36.870Z,25.00
2023-05-14T13:12:06.923Z,25.30
2023-05-14T13:14:36.395Z,25.40
2023-05-14T13:17:05.336Z,25.20
2023-05-14T13:19:33.411Z,25.20
2023-05-14T13:22:01.424Z,25.50
2023-05-14T13:24:29.476Z,25.70
2023-05-14T13:26:57.564Z,25.80
2023-05-14T13:29:29.296Z,25.70
2023-05-14T13:31:57.341Z,25.80
2023-05-14T13:34:25.388Z,25.40
2023-05-14T13:36:53.410Z,25.90
2023-05-14T13:39:22.762Z,26.10
2023-05-14T13:41:51.002Z,26.50
2023-05-14T13:44:18.958Z,26.90
2023-05-14T13:46:48.473Z,26.50
2023-05-14T13:49:16.709Z,26.70
2023-05-14T13:51:44.714Z,26.90
2023-05-14T13:54:12.709Z,27.40
2023-05-14T13:56:40.751Z,27.70
2023-05-14T13:59:08.762Z,28.00
2023-05-14T14:01:36.760Z,27.80
2023-05-14T14:04:06.204Z,28.00
2023-05-14T14:06:34.238Z,28.20
2023-05-14T14:09:02.325Z,28.50
2023-05-14T14:11:30.324Z,28.90
2023-05-14T14:13:58.421Z,29.20
2023-05-14T14:16:26.500Z,29.40
2023-05-14T14:18:54.623Z,31.00
2023-05-14T14:21:24.120Z,30.60
2023-05-14T14:23:52.149Z,30.00
2023-05-14T14:26:20.270Z,29.60
2023-05-14T14:28:48.221Z,29.60
2023-05-14T14:31:17.190Z,29.80
2023-05-14T14:33:45.223Z,30.20
2023-05-14T14:36:13.206Z,30.50
2023-05-14T14:38:42.597Z,30.40
2023-05-14T14:41:10.664Z,30.50
2023-05-14T14:43:40.184Z,31.00
2023-05-14T14:46:08.743Z,31.20
2023-05-14T14:48:37.826Z,31.20
2023-05-14T14:51:06.439Z,31.20
2023-05-14T14:53:34.692Z,31.40
2023-05-14T14:56:04.080Z,31.40
2023-05-14T14:58:32.159Z,31.30
2023-05-14T15:01:00.224Z,31.20
2023-05-14T15:03:28.707Z,30.40
2023-05-14T15:05:57.014Z,29.70
2023-05-14T15:08:26.813Z,29.20
2023-05-14T15:10:54.861Z,28.70
2023-05-14T15:13:24.594Z,28.40
2023-05-14T15:15:53.006Z,28.60
2023-05-14T15:18:21.136Z,28.70
2023-05-14T15:20:49.216Z,30.40
2023-05-14T15:23:17.269Z,31.50
2023-05-14T15:25:45.373Z,32.10
2023-05-14T15:28:13.391Z,32.30
2023-05-14T15:30:42.752Z,33.00
2023-05-14T15:33:10.751Z,33.30
2023-05-14T15:35:39.162Z,33.20
2023-05-14T15:38:07.750Z,33.20
2023-05-14T15:40:35.932Z,32.80
2023-05-14T15:43:03.929Z,32.70
2023-05-14T15:45:31.861Z,32.60
2023-05-14T15:48:01.276Z,32.00
2023-05-14T15:50:29.338Z,31.40
2023-05-14T15:52:57.474Z,31.50
2023-05-14T15:55:25.444Z,31.50
2023-05-14T15:57:53.466Z,31.10
2023-05-14T16:00:21.909Z,31.00
2023-05-14T16:02:50.022Z,30.70
2023-05-14T16:05:19.574Z,30.40
2023-05-14T16:07:48.084Z,30.20
2023-05-14T16:10:16.170Z,29.70
2023-05-14T16:12:44.248Z,29.10
2023-05-14T16:15:12.572Z,28.60
2023-05-14T16:17:40.850Z,28.30
2023-05-14T16:20:09.602Z,27.90
2023-05-14T16:22:38.976Z,27.60
2023-05-14T16:25:07.341Z,27.30
2023-05-14T16:27:35.773Z,26.80
2023-05-14T16:30:04.499Z,26.50
2023-05-14T16:32:34.080Z,26.20
2023-05-14T16:35:02.913Z,26.00
2023-05-14T16:37:32.326Z,25.50
2023-05-14T16:40:01.738Z,25.40
2023-05-14T16:42:30.112Z,25.10
2023-05-14T16:44:58.056Z,24.90
2023-05-14T16:47:26.030Z,24.80
2023-05-14T16:49:53.992Z,24.60
2023-05-14T16:52:22.014Z,24.40
2023-05-14T16:54:50.153Z,24.30
2023-05-14T16:57:19.460Z,23.90
2023-05-14T16:59:47.480Z,23.80
2023-05-14T17:02:16.276Z,23.70
2023-05-14T17:04:44.417Z,23.60
2023-05-14T17:07:12.594Z,23.40
2023-05-14T17:09:40.810Z,23.30
2023-05-14T17:12:09.607Z,23.20
2023-05-14T17:14:39.007Z,23.00
2023-05-14T17:17:06.962Z,22.70
2023-05-14T17:19:34.931Z,22.40
2023-05-14T17:22:05.712Z,22.40
2023-05-14T17:24:35.033Z,22.00
2023-05-14T17:27:03.123Z,21.90
2023-05-14T17:29:31.119Z,21.90
2023-05-14T17:32:00.755Z,22.00
2023-05-14T17:34:28.769Z,22.00
2023-05-14T17:36:56.804Z,22.10
2023-05-14T17:39:24.825Z,21.90
2023-05-14T17:41:53.054Z,21.80
2023-05-14T17:44:21.066Z,21.60
2023-05-14T17:46:49.700Z,21.60
2023-05-14T17:49:19.132Z,21.50
2023-05-14T17:51:47.152Z,21.60
2023-05-14T17:54:15.406Z,21.60
2023-05-14T17:56:43.511Z,21.60
2023-05-14T17:59:11.456Z,21.60
2023-05-14T18:01:39.418Z,21.60
2023-05-14T18:04:07.503Z,21.60
2023-05-14T18:06:36.966Z,21.50
2023-05-14T18:09:05.034Z,21.50
2023-05-14T18:11:34.010Z,21.40
2023-05-14T18:14:02.156Z,21.20
2023-05-14T18:16:30.340Z,21.10
2023-05-14T18:18:58.469Z,21.00
2023-05-14T18:21:26.552Z,21.00
2023-05-14T18:23:56.007Z,21.00
2023-05-14T18:26:24.026Z,20.90
2023-05-14T18:28:52.511Z,20.90
2023-05-14T18:31:20.612Z,20.80
2023-05-14T18:33:48.600Z,20.60
2023-05-14T18:36:16.723Z,20.50
2023-05-14T18:38:44.662Z,20.40
2023-05-14T18:41:13.978Z,20.40
2023-05-14T18:43:41.924Z,20.70
2023-05-14T18:46:11.136Z,20.40
2023-05-14T18:48:39.169Z,20.40
2023-05-14T18:51:07.565Z,20.30
2023-05-14T18:53:35.537Z,20.30
2023-05-14T18:56:03.594Z,20.20
2023-05-14T18:58:32.941Z,20.20
2023-05-14T19:01:00.906Z,20.20
2023-05-14T19:03:28.967Z,20.20
2023-05-14T19:05:57.658Z,20.20
2023-05-14T19:08:25.612Z,20.10
2023-05-14T19:10:53.712Z,20.10
2023-05-14T19:13:21.639Z,20.10
2023-05-14T19:15:51.189Z,20.00
2023-05-14T19:18:19.155Z,19.90
2023-05-14T19:20:47.230Z,19.90
2023-05-14T19:23:15.232Z,19.90
2023-05-14T19:25:43.210Z,19.80
2023-05-14T19:28:11.302Z,19.80
2023-05-14T19:30:39.330Z,19.70
2023-05-14T19:33:08.830Z,19.60
2023-05-14T19:35:36.911Z,19.60
2023-05-14T19:38:04.877Z,19.60
2023-05-14T19:40:32.864Z,19.50
2023-05-14T19:43:00.954Z,19.50
2023-05-14T19:45:28.950Z,19.40
2023-05-14T19:47:57.316Z,19.40
2023-05-14T19:50:26.654Z,19.40
2023-05-14T19:52:54.683Z,19.30
2023-05-14T19:55:22.863Z,19.30
2023-05-14T19:57:51.029Z,19.30
2023-05-14T20:00:19.185Z,19.20
2023-05-14T20:02:47.942Z,19.10
2023-05-14T20:05:16.598Z,19.10
2023-05-14T20:07:48.914Z,19.10
2023-05-14T20:10:16.884Z,19.00
2023-05-14T20:12:44.870Z,18.90
2023-05-14T20:15:12.829Z,18.70
2023-05-14T20:17:40.889Z,18.50
2023-05-14T20:20:09.999Z,18.50
2023-05-14T20:22:38.610Z,18.50
2023-05-14T20:25:08.934Z,18.50
2023-05-14T20:27:36.932Z,18.50
2023-05-14T20:30:05.442Z,18.50
2023-05-14T20:32:33.454Z,18.50
2023-05-14T20:35:02.160Z,18.40
2023-05-14T20:37:31.195Z,18.40
2023-05-14T20:39:59.461Z,18.40
2023-05-14T20:42:28.871Z,18.30
2023-05-14T20:44:56.849Z,18.30
2023-05-14T20:47:28.936Z,18.30
2023-05-14T20:49:56.927Z,18.30
2023-05-14T20:52:24.883Z,18.30
2023-05-14T20:54:52.978Z,18.20
2023-05-14T20:57:21.075Z,18.10
2023-05-14T20:59:50.494Z,18.10
2023-05-14T21:02:18.635Z,18.00
2023-05-14T21:04:47.156Z,18.00
2023-05-14T21:07:15.332Z,18.00
2023-05-14T21:09:46.404Z,18.10
2023-05-14T21:12:14.494Z,18.00
2023-05-14T21:14:42.729Z,17.90
2023-05-14T21:17:12.407Z,17.90
2023-05-14T21:19:40.441Z,17.90
2023-05-14T21:22:08.473Z,17.90
2023-05-14T21:24:36.409Z,17.90
2023-05-14T21:27:04.560Z,17.90
2023-05-14T21:29:32.600Z,17.90
2023-05-14T21:32:00.677Z,17.80
2023-05-14T21:34:31.835Z,17.80
2023-05-14T21:37:00.491Z,17.80
2023-05-14T21:39:28.478Z,17.70
2023-05-14T21:41:56.433Z,17.70
2023-05-14T21:44:24.365Z,17.60
2023-05-14T21:46:52.382Z,17.60
2023-05-14T21:49:20.367Z,17.60
2023-05-14T21:51:52.888Z,17.70
2023-05-14T21:54:20.989Z,17.60
2023-05-14T21:56:49.237Z,17.60
2023-05-14T21:59:17.252Z,17.60
2023-05-14T22:02:05.311Z,17.60
2023-05-14T22:04:33.483Z,17.60
2023-05-14T22:07:02.798Z,17.60
2023-05-14T22:09:31.272Z,17.50
2023-05-14T22:11:59.276Z,17.50
2023-05-14T22:14:27.614Z,17.50
2023-05-14T22:16:55.836Z,17.50
2023-05-14T22:19:23.902Z,17.50
2023-05-14T22:21:51.870Z,17.40
2023-05-14T22:24:21.201Z,17.40
2023-05-14T22:26:49.161Z,17.40
2023-05-14T22:29:17.171Z,17.30
2023-05-14T22:31:45.234Z,17.30
2023-05-14T22:34:13.255Z,17.30
2023-05-14T22:36:41.212Z,17.30
2023-05-14T22:39:10.132Z,17.30
2023-05-14T22:41:40.708Z,17.30
2023-05-14T22:44:08.682Z,17.20
2023-05-14T22:46:36.717Z,17.20
2023-05-14T22:49:04.710Z,17.20
2023-05-14T22:51:32.695Z,17.10
2023-05-14T22:54:00.643Z,17.00
2023-05-14T22:56:28.949Z,17.00
2023-05-14T22:59:01.381Z,16.90
2023-05-14T23:01:29.589Z,16.90
2023-05-14T23:03:57.678Z,16.70
2023-05-14T23:06:25.760Z,16.70
2023-05-14T23:08:53.867Z,16.70
2023-05-14T23:11:22.416Z,16.60
2023-05-14T23:13:50.527Z,16.60
2023-05-14T23:16:20.454Z,16.60
2023-05-14T23:18:48.525Z,16.60
2023-05-14T23:21:16.590Z,16.60
2023-05-14T23:23:45.418Z,16.60
2023-05-14T23:26:13.503Z,16.60
2023-05-14T23:28:41.650Z,16.60
2023-05-14T23:31:09.594Z,16.60
2023-05-14T23:33:39.824Z,16.50
2023-05-14T23:36:10.746Z,16.50
2023-05-14T23:38:38.772Z,16.40
2023-05-14T23:41:06.738Z,16.40
2023-05-14T23:43:34.724Z,16.30
2023-05-14T23:46:05.234Z,16.30
2023-05-14T23:48:33.469Z,16.30
2023-05-14T23:51:05.715Z,16.20
2023-05-14T23:53:33.697Z,16.20
2023-05-14T23:56:01.631Z,16.20
2023-05-14T23:58:30.351Z,16.20
